createdAt,value
2024-02-09T00:00:46.894Z,603.00
2024-02-09T00:01:46.923Z,603.00
2024-02-09T00:02:47.003Z,601.00
2024-02-09T00:03:47.043Z,605.00
2024-02-09T00:04:47.140Z,605.00
2024-02-09T00:05:46.982Z,602.00
2024-02-09T00:06:47.149Z,600.00
2024-02-09T00:07:47.365Z,601.00
2024-02-09T00:08:47.184Z,600.00
2024-02-09T00:09:47.116Z,605.00
2024-02-09T00:10:47.158Z,603.00
2024-02-09T00:11:47.166Z,607.00
2024-02-09T00:12:47.220Z,614.00
2024-02-09T00:13:47.249Z,604.00
2024-02-09T00:14:47.271Z,602.00
2024-02-09T00:15:47.654Z,600.00
2024-02-09T00:16:47.383Z,605.00
2024-02-09T00:17:47.757Z,602.00
2024-02-09T00:18:47.457Z,616.00
2024-02-09T00:19:47.442Z,606.00
2024-02-09T00:20:47.428Z,607.00
2024-02-09T00:21:47.486Z,604.00
2024-02-09T00:22:47.529Z,606.00
2024-02-09T00:23:47.552Z,606.00
2024-02-09T00:24:48.069Z,601.00
2024-02-09T00:25:47.637Z,603.00
2024-02-09T00:26:47.618Z,602.00
2024-02-09T00:27:47.651Z,602.00
2024-02-09T00:28:47.733Z,607.00
2024-02-09T00:29:47.714Z,606.00
2024-02-09T00:30:47.744Z,603.00
2024-02-09T00:31:47.757Z,613.00
2024-02-09T00:32:47.987Z,604.00
2024-02-09T00:33:47.938Z,608.00
2024-02-09T00:34:47.859Z,600.00
2024-02-09T00:35:47.935Z,610.00
2024-02-09T00:36:47.923Z,606.00
2024-02-09T00:37:47.952Z,606.00
2024-02-09T00:38:47.972Z,603.00
2024-02-09T00:39:48.010Z,608.00
2024-02-09T00:40:48.066Z,602.00
2024-02-09T00:41:48.074Z,613.00
2024-02-09T00:42:48.103Z,611.00
2024-02-09T00:43:48.144Z,613.00
2024-02-09T00:44:48.166Z,602.00
2024-02-09T00:45:48.204Z,606.00
2024-02-09T00:46:48.270Z,603.00
2024-02-09T00:47:48.333Z,601.00
2024-02-09T00:48:48.309Z,606.00
2024-02-09T00:49:48.433Z,608.00
2024-02-09T00:50:49.324Z,607.00
2024-02-09T00:51:48.359Z,608.00
2024-02-09T00:52:48.328Z,606.00
2024-02-09T00:53:48.317Z,604.00
2024-02-09T00:54:48.322Z,609.00
2024-02-09T00:55:48.361Z,604.00
2024-02-09T00:56:48.324Z,609.00
2024-02-09T00:57:48.330Z,603.00
2024-02-09T00:58:48.400Z,615.00
2024-02-09T00:59:48.317Z,603.00
2024-02-09T01:00:48.343Z,604.00
2024-02-09T01:01:57.716Z,601.00
2024-02-09T01:02:49.344Z,601.00
2024-02-09T01:03:48.344Z,603.00
2024-02-09T01:04:48.449Z,602.00
2024-02-09T01:05:48.494Z,603.00
2024-02-09T01:06:48.367Z,607.00
2024-02-09T01:07:48.397Z,600.00
2024-02-09T01:08:48.344Z,607.00
2024-02-09T01:09:48.354Z,613.00
2024-02-09T01:10:48.488Z,600.00
2024-02-09T01:11:48.335Z,603.00
2024-02-09T01:12:48.331Z,607.00
2024-02-09T01:13:48.342Z,605.00
2024-02-09T01:14:48.350Z,604.00
2024-02-09T01:15:48.359Z,604.00
2024-02-09T01:16:48.395Z,600.00
2024-02-09T01:17:48.371Z,612.00
2024-02-09T01:18:48.386Z,603.00
2024-02-09T01:19:48.399Z,607.00
2024-02-09T01:20:48.379Z,605.00
2024-02-09T01:21:48.398Z,607.00
2024-02-09T01:22:48.438Z,608.00
2024-02-09T01:23:48.482Z,605.00
2024-02-09T01:24:48.494Z,601.00
2024-02-09T01:25:48.532Z,609.00
2024-02-09T01:26:48.569Z,607.00
2024-02-09T01:27:48.617Z,608.00
2024-02-09T01:28:48.644Z,606.00
2024-02-09T01:29:48.695Z,608.00
2024-02-09T01:30:48.698Z,608.00
2024-02-09T01:31:48.743Z,606.00
2024-02-09T01:32:48.846Z,610.00
2024-02-09T01:33:48.885Z,609.00
2024-02-09T01:34:49.008Z,601.00
2024-02-09T01:35:48.932Z,606.00
2024-02-09T01:36:48.918Z,608.00
2024-02-09T01:37:48.951Z,602.00
2024-02-09T01:38:48.973Z,606.00
2024-02-09T01:39:49.006Z,611.00
2024-02-09T01:40:49.034Z,601.00
2024-02-09T01:41:49.075Z,605.00
2024-02-09T01:42:49.109Z,609.00
2024-02-09T01:43:49.142Z,602.00
2024-02-09T01:44:49.172Z,607.00
2024-02-09T01:46:00.816Z,602.00
2024-02-09T01:46:49.381Z,602.00
2024-02-09T01:47:49.524Z,603.00
2024-02-09T01:48:49.522Z,607.00
2024-02-09T01:49:49.508Z,611.00
2024-02-09T01:50:49.499Z,612.00
2024-02-09T01:51:49.509Z,611.00
2024-02-09T01:52:49.628Z,618.00
2024-02-09T01:53:49.584Z,620.00
2024-02-09T01:54:49.670Z,606.00
2024-02-09T01:55:49.688Z,605.00
2024-02-09T01:56:49.693Z,608.00
2024-02-09T01:57:49.739Z,607.00
2024-02-09T01:58:49.782Z,601.00
2024-02-09T01:59:49.827Z,605.00
2024-02-09T02:00:49.880Z,612.00
2024-02-09T02:01:49.998Z,609.00
2024-02-09T02:02:49.939Z,614.00
2024-02-09T02:03:50.055Z,603.00
2024-02-09T02:04:50.162Z,607.00
2024-02-09T02:05:50.104Z,605.00
2024-02-09T02:06:50.095Z,603.00
2024-02-09T02:07:50.174Z,609.00
2024-02-09T02:08:50.183Z,610.00
2024-02-09T02:09:50.230Z,609.00
2024-02-09T02:10:50.253Z,603.00
2024-02-09T02:11:50.305Z,607.00
2024-02-09T02:12:50.359Z,606.00
2024-02-09T02:13:50.386Z,602.00
2024-02-09T02:14:50.437Z,609.00
2024-02-09T02:15:50.477Z,606.00
2024-02-09T02:16:50.561Z,606.00
2024-02-09T02:17:50.634Z,603.00
2024-02-09T02:18:50.630Z,604.00
2024-02-09T02:19:50.664Z,613.00
2024-02-09T02:20:50.688Z,608.00
2024-02-09T02:21:50.695Z,611.00
2024-02-09T02:22:50.758Z,614.00
2024-02-09T02:23:50.824Z,609.00
2024-02-09T02:24:50.797Z,610.00
2024-02-09T02:25:50.866Z,603.00
2024-02-09T02:26:50.883Z,615.00
2024-02-09T02:27:50.930Z,608.00
2024-02-09T02:28:50.976Z,616.00
2024-02-09T02:29:51.003Z,604.00
2024-02-09T02:30:51.044Z,611.00
2024-02-09T02:31:51.093Z,615.00
2024-02-09T02:32:51.165Z,611.00
2024-02-09T02:33:51.299Z,609.00
2024-02-09T02:34:51.270Z,612.00
2024-02-09T02:35:51.250Z,617.00
2024-02-09T02:36:51.294Z,612.00
2024-02-09T02:37:51.332Z,606.00
2024-02-09T02:38:51.361Z,610.00
2024-02-09T02:39:51.422Z,608.00
2024-02-09T02:40:51.460Z,603.00
2024-02-09T02:41:51.472Z,606.00
2024-02-09T02:42:51.540Z,605.00
2024-02-09T02:43:51.601Z,602.00
2024-02-09T02:44:51.654Z,612.00
2024-02-09T02:45:51.671Z,608.00
2024-02-09T02:46:51.715Z,609.00
2024-02-09T02:47:51.759Z,609.00
2024-02-09T02:48:51.808Z,613.00
2024-02-09T02:49:51.883Z,611.00
2024-02-09T02:50:51.881Z,605.00
2024-02-09T02:51:51.899Z,606.00
2024-02-09T02:52:51.953Z,612.00
2024-02-09T02:53:51.990Z,606.00
2024-02-09T02:54:52.029Z,612.00
2024-02-09T02:55:52.078Z,606.00
2024-02-09T02:56:52.117Z,615.00
2024-02-09T02:57:52.187Z,611.00
2024-02-09T02:58:52.228Z,605.00
2024-02-09T02:59:52.262Z,607.00
2024-02-09T03:00:52.357Z,607.00
2024-02-09T03:01:52.374Z,602.00
2024-02-09T03:02:52.391Z,610.00
2024-02-09T03:03:52.481Z,604.00
2024-02-09T03:04:52.614Z,608.00
2024-02-09T03:05:52.608Z,607.00
2024-02-09T03:07:13.653Z,617.00
2024-02-09T03:08:33.128Z,615.00
2024-02-09T03:08:53.658Z,610.00
2024-02-09T03:09:52.629Z,615.00
2024-02-09T03:10:52.648Z,616.00
2024-02-09T03:11:52.593Z,614.00
2024-02-09T03:12:52.600Z,606.00
2024-02-09T03:13:52.599Z,611.00
2024-02-09T03:14:52.608Z,611.00
2024-02-09T03:15:52.614Z,615.00
2024-02-09T03:16:52.596Z,613.00
2024-02-09T03:17:52.646Z,606.00
2024-02-09T03:18:52.620Z,614.00
2024-02-09T03:19:52.681Z,611.00
2024-02-09T03:20:52.609Z,600.00
2024-02-09T03:21:52.596Z,607.00
2024-02-09T03:22:52.626Z,609.00
2024-02-09T03:23:52.594Z,613.00
2024-02-09T03:24:52.606Z,609.00
2024-02-09T03:25:52.612Z,612.00
2024-02-09T03:26:52.626Z,604.00
2024-02-09T03:27:52.611Z,604.00
2024-02-09T03:28:52.631Z,612.00
2024-02-09T03:29:52.608Z,607.00
2024-02-09T03:30:52.629Z,607.00
2024-02-09T03:31:52.618Z,614.00
2024-02-09T03:32:52.884Z,603.00
2024-02-09T03:33:52.670Z,600.00
2024-02-09T03:34:52.731Z,600.00
2024-02-09T03:35:52.738Z,611.00
2024-02-09T03:36:52.623Z,602.00
2024-02-09T03:37:52.630Z,613.00
2024-02-09T03:38:52.627Z,603.00
2024-02-09T03:39:52.642Z,609.00
2024-02-09T03:40:57.742Z,606.00
2024-02-09T03:41:52.691Z,606.00
2024-02-09T03:42:52.712Z,606.00
2024-02-09T03:43:52.748Z,606.00
2024-02-09T03:44:52.710Z,604.00
2024-02-09T03:45:52.720Z,608.00
2024-02-09T03:46:52.719Z,612.00
2024-02-09T03:47:52.767Z,611.00
2024-02-09T03:48:52.756Z,608.00
2024-02-09T03:49:52.783Z,605.00
2024-02-09T03:50:52.713Z,605.00
2024-02-09T03:51:52.711Z,601.00
2024-02-09T03:52:52.713Z,604.00
2024-02-09T03:53:52.714Z,603.00
2024-02-09T03:54:52.767Z,604.00
2024-02-09T03:55:52.836Z,605.00
2024-02-09T03:56:52.841Z,605.00
2024-02-09T03:57:52.865Z,603.00
2024-02-09T03:58:52.921Z,604.00
2024-02-09T03:59:52.917Z,607.00
2024-02-09T04:00:53.024Z,600.00
2024-02-09T04:01:53.015Z,603.00
2024-02-09T04:02:53.002Z,604.00
2024-02-09T04:03:53.144Z,606.00
2024-02-09T04:04:53.092Z,605.00
2024-02-09T04:05:53.151Z,600.00
2024-02-09T04:06:53.084Z,601.00
2024-02-09T04:07:53.080Z,603.00
2024-02-09T04:08:53.112Z,606.00
2024-02-09T04:10:15.068Z,606.00
2024-02-09T04:10:54.161Z,606.00
2024-02-09T04:11:53.154Z,606.00
2024-02-09T04:12:53.150Z,607.00
2024-02-09T04:13:53.151Z,609.00
2024-02-09T04:14:53.147Z,612.00
2024-02-09T04:15:53.130Z,612.00
2024-02-09T04:16:53.146Z,610.00
2024-02-09T04:17:53.315Z,609.00
2024-02-09T04:18:53.149Z,609.00
2024-02-09T04:19:53.158Z,612.00
2024-02-09T04:20:53.141Z,611.00
2024-02-09T04:21:53.122Z,607.00
2024-02-09T04:22:53.128Z,612.00
2024-02-09T04:23:53.122Z,608.00
2024-02-09T04:24:53.132Z,608.00
2024-02-09T04:25:53.132Z,611.00
2024-02-09T04:26:53.156Z,611.00
2024-02-09T04:27:53.215Z,608.00
2024-02-09T04:28:53.152Z,609.00
2024-02-09T04:29:53.160Z,610.00
2024-02-09T04:30:53.156Z,611.00
2024-02-09T04:31:53.139Z,611.00
2024-02-09T04:33:00.468Z,600.00
2024-02-09T04:34:00.554Z,600.00
2024-02-09T04:35:00.480Z,600.00
2024-02-09T04:36:00.645Z,600.00
2024-02-09T04:37:00.389Z,600.00
2024-02-09T04:38:00.389Z,600.00
2024-02-09T04:39:00.422Z,603.00
2024-02-09T04:40:00.478Z,603.00
2024-02-09T04:41:00.461Z,606.00
2024-02-09T04:42:00.460Z,604.00
2024-02-09T04:43:00.415Z,603.00
2024-02-09T04:44:00.448Z,604.00
2024-02-09T04:45:00.402Z,603.00
2024-02-09T04:46:00.462Z,607.00
2024-02-09T04:47:00.413Z,601.00
2024-02-09T04:48:00.645Z,602.00
2024-02-09T04:49:00.553Z,602.00
2024-02-09T04:50:00.500Z,605.00
2024-02-09T04:51:00.397Z,601.00
2024-02-09T04:52:00.437Z,603.00
2024-02-09T04:53:00.430Z,606.00
2024-02-09T04:54:00.470Z,603.00
2024-02-09T04:55:00.748Z,604.00
2024-02-09T04:56:00.614Z,604.00
2024-02-09T04:57:00.680Z,604.00
2024-02-09T04:58:00.784Z,603.00
2024-02-09T04:59:00.830Z,605.00
2024-02-09T05:00:00.914Z,607.00
2024-02-09T05:01:01.078Z,604.00
2024-02-09T05:02:01.143Z,602.00
2024-02-09T05:03:01.096Z,605.00
2024-02-09T05:04:01.294Z,602.00
2024-02-09T05:05:01.407Z,602.00
2024-02-09T05:06:01.348Z,603.00
2024-02-09T05:07:01.414Z,603.00
2024-02-09T05:08:01.472Z,609.00
2024-02-09T05:09:01.539Z,607.00
2024-02-09T05:10:01.657Z,603.00
2024-02-09T05:11:01.666Z,609.00
2024-02-09T05:12:01.748Z,604.00
2024-02-09T05:13:01.819Z,608.00
2024-02-09T05:14:01.864Z,605.00
2024-02-09T05:15:01.916Z,608.00
2024-02-09T05:16:02.022Z,601.00
2024-02-09T05:17:02.040Z,607.00
2024-02-09T05:18:02.171Z,607.00
2024-02-09T05:19:02.276Z,608.00
2024-02-09T05:20:02.365Z,607.00
2024-02-09T05:21:02.323Z,607.00
2024-02-09T05:22:02.415Z,607.00
2024-02-09T05:23:03.001Z,605.00
2024-02-09T05:24:02.546Z,604.00
2024-02-09T05:25:02.656Z,605.00
2024-02-09T05:26:06.110Z,601.00
2024-02-09T05:27:02.697Z,607.00
2024-02-09T05:28:02.717Z,607.00
2024-02-09T05:29:02.689Z,605.00
2024-02-09T05:30:02.709Z,604.00
2024-02-09T05:31:02.778Z,604.00
2024-02-09T05:32:02.711Z,606.00
2024-02-09T05:33:02.756Z,604.00
2024-02-09T05:34:02.784Z,605.00
2024-02-09T05:35:02.816Z,604.00
2024-02-09T05:36:02.691Z,602.00
2024-02-09T05:37:02.736Z,606.00
2024-02-09T05:38:02.704Z,604.00
2024-02-09T05:39:02.752Z,609.00
2024-02-09T05:40:02.755Z,606.00
2024-02-09T05:41:02.689Z,606.00
2024-02-09T05:42:02.697Z,606.00
2024-02-09T05:43:02.777Z,606.00
2024-02-09T05:44:02.720Z,608.00
2024-02-09T05:45:02.684Z,607.00
2024-02-09T05:46:02.746Z,607.00
2024-02-09T05:47:02.691Z,602.00
2024-02-09T05:48:02.751Z,606.00
2024-02-09T05:49:02.806Z,605.00
2024-02-09T05:50:02.863Z,609.00
2024-02-09T05:51:02.693Z,608.00
2024-02-09T05:52:02.762Z,608.00
2024-02-09T05:53:02.797Z,603.00
2024-02-09T05:54:02.881Z,604.00
2024-02-09T05:55:02.992Z,603.00
2024-02-09T05:56:03.020Z,605.00
2024-02-09T05:57:03.069Z,603.00
2024-02-09T05:58:03.157Z,607.00
2024-02-09T05:59:03.834Z,606.00
2024-02-09T06:00:03.271Z,604.00
2024-02-09T06:01:03.417Z,606.00
2024-02-09T06:02:03.478Z,604.00
2024-02-09T06:03:03.484Z,604.00
2024-02-09T06:04:03.730Z,604.00
2024-02-09T06:05:03.689Z,601.00
2024-02-09T06:06:03.805Z,601.00
2024-02-09T06:07:03.837Z,601.00
2024-02-09T06:08:03.818Z,605.00
2024-02-09T06:09:03.934Z,603.00
2024-02-09T06:10:03.993Z,603.00
2024-02-09T06:11:04.106Z,606.00
2024-02-09T06:12:04.114Z,604.00
2024-02-09T06:13:04.303Z,604.00
2024-02-09T06:14:04.273Z,604.00
2024-02-09T06:15:04.352Z,606.00
2024-02-09T06:16:04.470Z,609.00
2024-02-09T06:17:04.470Z,605.00
2024-02-09T06:18:04.585Z,606.00
2024-02-09T06:19:04.765Z,603.00
2024-02-09T06:20:04.745Z,606.00
2024-02-09T06:21:05.013Z,603.00
2024-02-09T06:22:04.835Z,604.00
2024-02-09T06:23:04.910Z,604.00
2024-02-09T06:24:04.973Z,608.00
2024-02-09T06:25:05.091Z,603.00
2024-02-09T06:26:05.109Z,603.00
2024-02-09T06:27:05.172Z,607.00
2024-02-09T06:28:05.267Z,606.00
2024-02-09T06:29:05.333Z,607.00
2024-02-09T06:30:05.384Z,603.00
2024-02-09T06:31:05.576Z,606.00
2024-02-09T06:32:05.527Z,604.00
2024-02-09T06:33:05.687Z,608.00
2024-02-09T06:34:05.755Z,604.00
2024-02-09T06:35:06.148Z,605.00
2024-02-09T06:36:05.814Z,607.00
2024-02-09T06:37:05.968Z,604.00
2024-02-09T06:38:05.974Z,604.00
2024-02-09T06:39:06.006Z,604.00
2024-02-09T06:40:06.146Z,601.00
2024-02-09T06:41:06.149Z,602.00
2024-02-09T06:42:06.196Z,603.00
2024-02-09T06:43:06.359Z,608.00
2024-02-09T06:44:06.334Z,609.00
2024-02-09T06:45:06.388Z,610.00
2024-02-09T06:46:06.492Z,613.00
2024-02-09T06:47:06.509Z,614.00
2024-02-09T06:48:06.580Z,640.00
2024-02-09T06:49:06.910Z,680.00
2024-02-09T06:50:06.696Z,739.00
2024-02-09T06:51:06.733Z,739.00
2024-02-09T06:52:06.697Z,727.00
2024-02-09T06:53:06.810Z,696.00
2024-02-09T06:54:06.792Z,660.00
2024-02-09T06:55:06.845Z,643.00
2024-02-09T06:56:06.884Z,632.00
2024-02-09T06:57:06.897Z,621.00
2024-02-09T06:58:06.963Z,611.00
2024-02-09T06:59:06.912Z,606.00
2024-02-09T07:00:06.922Z,601.00
2024-02-09T07:01:07.138Z,602.00
2024-02-09T07:02:07.123Z,607.00
2024-02-09T07:03:07.154Z,618.00
2024-02-09T07:04:07.179Z,612.00
2024-02-09T07:05:07.195Z,614.00
2024-02-09T07:06:07.232Z,615.00
2024-02-09T07:07:07.302Z,618.00
2024-02-09T07:08:07.241Z,619.00
2024-02-09T07:09:07.325Z,623.00
2024-02-09T07:10:07.293Z,628.00
2024-02-09T07:11:07.323Z,631.00
2024-02-09T07:12:07.387Z,643.00
2024-02-09T07:13:07.538Z,648.00
2024-02-09T07:14:07.507Z,653.00
2024-02-09T07:15:07.691Z,662.00
2024-02-09T07:16:07.674Z,668.00
2024-02-09T07:17:07.679Z,694.00
2024-02-09T07:18:07.714Z,701.00
2024-02-09T07:19:07.789Z,727.00
2024-02-09T07:20:07.829Z,751.00
2024-02-09T07:21:07.798Z,775.00
2024-02-09T07:22:07.881Z,797.00
2024-02-09T07:23:07.855Z,809.00
2024-02-09T07:24:09.570Z,828.00
2024-02-09T07:25:08.030Z,849.00
2024-02-09T07:26:07.898Z,868.00
2024-02-09T07:27:07.926Z,875.00
2024-02-09T07:28:07.970Z,888.00
2024-02-09T07:29:07.938Z,909.00
2024-02-09T07:30:07.963Z,919.00
2024-02-09T07:31:07.978Z,938.00
2024-02-09T07:32:07.939Z,957.00
2024-02-09T07:33:08.048Z,979.00
2024-02-09T07:34:08.052Z,1002.00
2024-02-09T07:35:08.060Z,1009.00
2024-02-09T07:36:08.486Z,1018.00
2024-02-09T07:37:08.085Z,1044.00
2024-02-09T07:38:08.102Z,1050.00
2024-02-09T07:39:08.166Z,1067.00
2024-02-09T07:40:08.259Z,1104.00
2024-02-09T07:41:08.302Z,1109.00
2024-02-09T07:42:08.333Z,1123.00
2024-02-09T07:43:08.452Z,1140.00
2024-02-09T07:44:08.436Z,1161.00
2024-02-09T07:45:08.456Z,1176.00
2024-02-09T07:46:08.540Z,1186.00
2024-02-09T07:47:08.494Z,1205.00
2024-02-09T07:48:08.749Z,1215.00
2024-02-09T07:49:08.614Z,1225.00
2024-02-09T07:50:08.601Z,1244.00
2024-02-09T07:51:08.631Z,1256.00
2024-02-09T07:52:08.720Z,1263.00
2024-02-09T07:53:08.753Z,1287.00
2024-02-09T07:54:08.797Z,1303.00
2024-02-09T07:55:09.255Z,1315.00
2024-02-09T07:56:08.893Z,1308.00
2024-02-09T07:57:08.893Z,1315.00
2024-02-09T07:58:08.968Z,1299.00
2024-02-09T07:59:08.942Z,1291.00
2024-02-09T08:00:09.009Z,1265.00
2024-02-09T08:01:09.116Z,1235.00
2024-02-09T08:02:09.216Z,1226.00
2024-02-09T08:03:09.102Z,1190.00
2024-02-09T08:04:09.237Z,1170.00
2024-02-09T08:05:09.426Z,1129.00
2024-02-09T08:06:09.291Z,1103.00
2024-02-09T08:07:09.332Z,1065.00
2024-02-09T08:08:09.407Z,1052.00
2024-02-09T08:09:09.416Z,1024.00
2024-02-09T08:10:09.545Z,995.00
2024-02-09T08:11:09.535Z,980.00
2024-02-09T08:12:12.578Z,984.00
2024-02-09T08:13:09.617Z,985.00
2024-02-09T08:14:09.606Z,985.00
2024-02-09T08:15:09.576Z,985.00
2024-02-09T08:16:09.575Z,989.00
2024-02-09T08:17:09.569Z,999.00
2024-02-09T08:18:09.614Z,990.00
2024-02-09T08:19:09.650Z,995.00
2024-02-09T08:20:09.618Z,1004.00
2024-02-09T08:21:09.577Z,1000.00
2024-02-09T08:22:09.583Z,1007.00
2024-02-09T08:23:09.614Z,1009.00
2024-02-09T08:24:11.159Z,1005.00
2024-02-09T08:25:09.638Z,1006.00
2024-02-09T08:26:09.581Z,1015.00
2024-02-09T08:27:09.575Z,1017.00
2024-02-09T08:28:09.616Z,1011.00
2024-02-09T08:29:09.597Z,1016.00
2024-02-09T08:30:09.597Z,1027.00
2024-02-09T08:31:09.635Z,1013.00
2024-02-09T08:32:09.592Z,1030.00
2024-02-09T08:33:09.631Z,1029.00
2024-02-09T08:34:09.776Z,1024.00
2024-02-09T08:35:09.756Z,1028.00
2024-02-09T08:36:09.603Z,1031.00
2024-02-09T08:37:09.676Z,1044.00
2024-02-09T08:38:09.577Z,1037.00
2024-02-09T08:39:09.601Z,1048.00
2024-02-09T08:40:09.645Z,1048.00
2024-02-09T08:41:09.614Z,1047.00
2024-02-09T08:42:09.625Z,1051.00
2024-02-09T08:43:09.638Z,1060.00
2024-02-09T08:44:09.589Z,1061.00
2024-02-09T08:45:09.617Z,1048.00
2024-02-09T08:46:09.607Z,1064.00
2024-02-09T08:47:09.612Z,1062.00
2024-02-09T08:48:09.625Z,1055.00
2024-02-09T08:49:09.651Z,1064.00
2024-02-09T08:50:09.656Z,1066.00
2024-02-09T08:51:09.595Z,1070.00
2024-02-09T08:52:09.616Z,1069.00
2024-02-09T08:53:09.603Z,1079.00
2024-02-09T08:54:09.584Z,1073.00
2024-02-09T08:55:09.609Z,1066.00
2024-02-09T08:56:09.585Z,1065.00
2024-02-09T08:57:09.591Z,1063.00
2024-02-09T08:58:09.636Z,1073.00
2024-02-09T08:59:11.727Z,1067.00
2024-02-09T09:00:09.613Z,1067.00
2024-02-09T09:01:09.718Z,1069.00
2024-02-09T09:02:09.697Z,1068.00
2024-02-09T09:03:09.637Z,1066.00
2024-02-09T09:04:09.624Z,1061.00
2024-02-09T09:05:10.474Z,1075.00
2024-02-09T09:06:09.704Z,1063.00
2024-02-09T09:07:09.689Z,1074.00
2024-02-09T09:08:09.593Z,1066.00
2024-02-09T09:09:09.632Z,1064.00
2024-02-09T09:10:09.698Z,1062.00
2024-02-09T09:11:09.645Z,1066.00
2024-02-09T09:12:12.113Z,1058.00
2024-02-09T09:13:09.642Z,1058.00
2024-02-09T09:14:09.595Z,1058.00
2024-02-09T09:15:09.607Z,1059.00
2024-02-09T09:16:09.645Z,1049.00
2024-02-09T09:17:18.076Z,1059.00
2024-02-09T09:18:10.664Z,1058.00
2024-02-09T09:19:09.671Z,1058.00
2024-02-09T09:20:09.636Z,1051.00
2024-02-09T09:21:09.630Z,1046.00
2024-02-09T09:22:09.641Z,1059.00
2024-02-09T09:23:09.623Z,1047.00
2024-02-09T09:24:09.611Z,1046.00
2024-02-09T09:25:09.641Z,1043.00
2024-02-09T09:26:17.486Z,1043.00
2024-02-09T09:27:10.654Z,1043.00
2024-02-09T09:28:09.646Z,1044.00
2024-02-09T09:29:09.634Z,1043.00
2024-02-09T09:30:09.618Z,1044.00
2024-02-09T09:31:09.666Z,1055.00
2024-02-09T09:32:09.628Z,1037.00
2024-02-09T09:33:09.642Z,1049.00
2024-02-09T09:34:09.674Z,1030.00
2024-02-09T09:35:09.750Z,1032.00
2024-02-09T09:36:09.674Z,1037.00
2024-02-09T09:37:09.660Z,1037.00
2024-02-09T09:38:09.624Z,1036.00
2024-02-09T09:39:10.620Z,1035.00
2024-02-09T09:40:09.816Z,1024.00
2024-02-09T09:41:09.704Z,1021.00
2024-02-09T09:42:09.660Z,1026.00
2024-02-09T09:43:09.677Z,1018.00
2024-02-09T09:44:09.664Z,1022.00
2024-02-09T09:45:09.665Z,1017.00
2024-02-09T09:46:09.830Z,1011.00
2024-02-09T09:47:09.654Z,1006.00
2024-02-09T09:48:09.711Z,1005.00
2024-02-09T09:49:09.869Z,1008.00
2024-02-09T09:50:09.804Z,999.00
2024-02-09T09:51:09.710Z,1008.00
2024-02-09T09:52:09.727Z,1008.00
2024-02-09T09:53:09.791Z,999.00
2024-02-09T09:54:09.674Z,1005.00
2024-02-09T09:55:09.682Z,1001.00
2024-02-09T09:56:09.732Z,992.00
2024-02-09T09:57:09.716Z,1005.00
2024-02-09T09:58:09.763Z,994.00
2024-02-09T09:59:09.762Z,999.00
2024-02-09T10:00:09.778Z,995.00
2024-02-09T10:01:15.302Z,994.00
2024-02-09T10:02:09.826Z,994.00
2024-02-09T10:03:09.812Z,994.00
2024-02-09T10:04:09.845Z,992.00
2024-02-09T10:05:09.975Z,992.00
2024-02-09T10:06:10.058Z,993.00
2024-02-09T10:07:09.877Z,995.00
2024-02-09T10:08:09.927Z,980.00
2024-02-09T10:09:09.808Z,987.00
2024-02-09T10:10:09.855Z,984.00
2024-02-09T10:11:09.822Z,983.00
2024-02-09T10:12:09.820Z,978.00
2024-02-09T10:13:11.656Z,984.00
2024-02-09T10:14:09.798Z,987.00
2024-02-09T10:15:09.816Z,974.00
2024-02-09T10:16:09.860Z,984.00
2024-02-09T10:17:09.819Z,966.00
2024-02-09T10:18:09.896Z,972.00
2024-02-09T10:19:09.917Z,977.00
2024-02-09T10:20:09.816Z,980.00
2024-02-09T10:21:09.815Z,971.00
2024-02-09T10:22:16.127Z,966.00
2024-02-09T10:23:10.935Z,967.00
2024-02-09T10:24:11.294Z,968.00
2024-02-09T10:25:09.962Z,970.00
2024-02-09T10:26:09.839Z,968.00
2024-02-09T10:27:09.843Z,972.00
2024-02-09T10:28:09.861Z,968.00
2024-02-09T10:29:09.848Z,962.00
2024-02-09T10:30:09.832Z,960.00
2024-02-09T10:31:09.872Z,957.00
2024-02-09T10:32:09.872Z,962.00
2024-02-09T10:33:09.848Z,964.00
2024-02-09T10:34:10.035Z,963.00
2024-02-09T10:35:09.921Z,949.00
2024-02-09T10:36:09.995Z,954.00
2024-02-09T10:37:17.004Z,957.00
2024-02-09T10:38:11.021Z,957.00
2024-02-09T10:39:09.907Z,957.00
2024-02-09T10:40:09.894Z,950.00
2024-02-09T10:41:09.847Z,955.00
2024-02-09T10:42:09.854Z,947.00
2024-02-09T10:43:09.931Z,949.00
2024-02-09T10:44:09.884Z,953.00
2024-02-09T10:45:13.904Z,948.00
2024-02-09T10:46:10.909Z,948.00
2024-02-09T10:47:09.885Z,946.00
2024-02-09T10:48:09.943Z,944.00
2024-02-09T10:49:10.072Z,936.00
2024-02-09T10:50:09.991Z,925.00
2024-02-09T10:51:09.861Z,898.00
2024-02-09T10:52:09.887Z,867.00
2024-02-09T10:53:09.864Z,836.00
2024-02-09T10:54:09.920Z,805.00
2024-02-09T10:55:09.936Z,784.00
2024-02-09T10:56:09.895Z,777.00
2024-02-09T10:57:09.912Z,751.00
2024-02-09T10:58:09.944Z,731.00
2024-02-09T10:59:09.865Z,721.00
2024-02-09T11:00:09.872Z,710.00
2024-02-09T11:01:09.969Z,706.00
2024-02-09T11:02:09.998Z,704.00
2024-02-09T11:03:10.017Z,690.00
2024-02-09T11:04:10.150Z,685.00
2024-02-09T11:05:10.262Z,668.00
2024-02-09T11:06:10.262Z,666.00
2024-02-09T11:07:10.284Z,664.00
2024-02-09T11:08:10.352Z,671.00
2024-02-09T11:09:10.314Z,673.00
2024-02-09T11:10:10.396Z,678.00
2024-02-09T11:11:10.386Z,687.00
2024-02-09T11:12:10.430Z,692.00
2024-02-09T11:13:10.458Z,699.00
2024-02-09T11:14:10.663Z,704.00
2024-02-09T11:15:10.513Z,713.00
2024-02-09T11:16:10.642Z,710.00
2024-02-09T11:17:10.603Z,706.00
2024-02-09T11:18:10.611Z,712.00
2024-02-09T11:19:10.684Z,712.00
2024-02-09T11:20:10.665Z,717.00
2024-02-09T11:21:10.675Z,709.00
2024-02-09T11:22:10.812Z,709.00
2024-02-09T11:23:10.736Z,714.00
2024-02-09T11:24:10.748Z,711.00
2024-02-09T11:25:10.795Z,708.00
2024-02-09T11:26:10.801Z,725.00
2024-02-09T11:27:10.769Z,719.00
2024-02-09T11:28:10.809Z,728.00
2024-02-09T11:29:10.775Z,724.00
2024-02-09T11:30:10.803Z,734.00
2024-02-09T11:31:10.838Z,736.00
2024-02-09T11:32:10.841Z,738.00
2024-02-09T11:33:10.872Z,746.00
2024-02-09T11:34:11.040Z,760.00
2024-02-09T11:35:11.073Z,769.00
2024-02-09T11:36:11.064Z,775.00
2024-02-09T11:37:11.236Z,779.00
2024-02-09T11:38:11.224Z,798.00
2024-02-09T11:39:11.285Z,796.00
2024-02-09T11:40:11.437Z,809.00
2024-02-09T11:41:11.442Z,817.00
2024-02-09T11:42:12.056Z,816.00
2024-02-09T11:43:11.581Z,823.00
2024-02-09T11:44:11.654Z,827.00
2024-02-09T11:45:11.707Z,820.00
2024-02-09T11:46:11.837Z,834.00
2024-02-09T11:47:11.852Z,847.00
2024-02-09T11:48:11.976Z,865.00
2024-02-09T11:49:12.082Z,870.00
2024-02-09T11:50:12.065Z,877.00
2024-02-09T11:51:12.083Z,887.00
2024-02-09T11:52:12.157Z,880.00
2024-02-09T11:53:13.421Z,884.00
2024-02-09T11:54:12.214Z,891.00
2024-02-09T11:55:12.296Z,894.00
2024-02-09T11:56:12.307Z,895.00
2024-02-09T11:57:14.544Z,899.00
2024-02-09T11:58:12.438Z,907.00
2024-02-09T11:59:12.454Z,900.00
2024-02-09T12:00:12.443Z,903.00
2024-02-09T12:01:12.557Z,898.00
2024-02-09T12:02:12.583Z,897.00
2024-02-09T12:03:15.870Z,909.00
2024-02-09T12:04:12.699Z,906.00
2024-02-09T12:05:12.589Z,909.00
2024-02-09T12:06:12.487Z,904.00
2024-02-09T12:07:12.580Z,910.00
2024-02-09T12:08:12.565Z,901.00
2024-02-09T12:09:14.797Z,912.00
2024-02-09T12:10:12.643Z,902.00
2024-02-09T12:11:12.639Z,898.00
2024-02-09T12:12:12.702Z,906.00
2024-02-09T12:13:12.782Z,902.00
2024-02-09T12:14:12.756Z,903.00
2024-02-09T12:15:12.802Z,904.00
2024-02-09T12:16:12.874Z,891.00
2024-02-09T12:17:12.877Z,894.00
2024-02-09T12:18:13.061Z,896.00
2024-02-09T12:19:13.010Z,895.00
2024-02-09T12:20:13.036Z,890.00
2024-02-09T12:21:13.025Z,893.00
2024-02-09T12:22:13.135Z,902.00
2024-02-09T12:23:13.160Z,897.00
2024-02-09T12:24:13.228Z,889.00
2024-02-09T12:25:13.319Z,892.00